Stornoway, United Kingdom
Current Conditions -  °F | °C
As of 4:50 AM on Saturday 20 Dec 2014 (Local Time) from EGPO Reporting Station
Broken Clouds Broken Clouds  
Wind Chill: 32°   Ceiling: 4500
Heat Index: 43°   Visibility: 6mi
Dew Point: 36°   Wind: 33mph
Humidity: 76%   Direction: 290°WNW
Pressure: 29.77"   Gusts: NA
Location:  58.22°N, 6.39°W
Report Text: EGPO 200450Z AUTO 29029KT 9999 BKN045/// 06/02 Q1008
Loading
Personal Weather Stations






























Interactive Weather Map New forecast layout! Learn more

10-Day Weather Forecast

Advertisements
Track Severe Weather on mobile